Time;durP1;ratioP1;P1;durP2;ratioP2;P2;SDS_P1;SDS_P2;PMS_P1;PMS_P2;Temp;Humidity;BMP_temperature;BMP_pressure;BME280_temperature;BME280_humidity;BME280_pressure;Samples;Min_cycle;Max_cycle;Signal;HPM_P1;HPM_P2
2023/11/25 00:02:21;;;;;;;;;;;0.80;99.90;;;;;;5032172;28;20370;-74
2023/11/25 00:04:46;;;;;;;;;;;0.70;99.90;;;;;;5033098;28;19963;-72
2023/11/25 00:07:12;;;;;;;;;;;0.70;99.90;;;;;;5035898;28;19913;-75
2023/11/25 00:09:37;;;;;;;;;;;0.50;99.90;;;;;;5030750;28;19909;-72
2023/11/25 00:12:03;;;;;;;;;;;0.50;99.90;;;;;;5029788;28;19916;-72
2023/11/25 00:14:28;;;;;;;;;;;0.60;99.90;;;;;;5041673;28;19910;-74
2023/11/25 00:16:54;;;;;;;;;;;0.60;99.90;;;;;;5031075;28;19913;-72
2023/11/25 00:19:19;;;;;;;;;;;0.60;99.90;;;;;;5036701;28;19917;-71
2023/11/25 00:21:46;;;;;;;;;;;0.60;99.90;;;;;;5034540;28;19913;-72
2023/11/25 00:24:11;;;;;;;;;;;0.70;99.90;;;;;;5038793;28;20352;-73
2023/11/25 00:26:37;;;;;;;;;;;0.70;99.90;;;;;;5031846;28;19956;-71
2023/11/25 00:29:03;;;;;;;;;;;0.70;99.90;;;;;;5042159;28;20607;-74
2023/11/25 00:31:29;;;;;;;;;;;0.70;99.90;;;;;;5023668;28;19917;-74
2023/11/25 00:33:54;;;;;;;;;;;0.70;99.90;;;;;;5031913;28;19967;-74
2023/11/25 00:36:20;;;;;;;;;;;0.70;99.90;;;;;;5030158;28;19913;-73
2023/11/25 00:38:46;;;;;;;;;;;0.70;99.90;;;;;;5031995;28;19940;-74
2023/11/25 00:41:12;;;;;;;;;;;0.70;99.90;;;;;;5031547;28;19960;-72
2023/11/25 00:43:38;;;;;;;;;;;0.80;99.90;;;;;;5029404;28;20343;-74
2023/11/25 00:46:03;;;;;;;;;;;0.80;99.90;;;;;;5036361;28;19916;-74
2023/11/25 00:48:31;;;;;;;;;;;0.80;99.90;;;;;;5028000;28;19910;-74
2023/11/25 00:50:57;;;;;;;;;;;0.70;99.90;;;;;;5037619;28;19909;-71
2023/11/25 00:53:23;;;;;;;;;;;0.80;99.90;;;;;;5040050;28;19996;-71
2023/11/25 00:55:48;;;;;;;;;;;0.80;99.90;;;;;;5038114;28;19956;-74
2023/11/25 00:58:14;;;;;;;;;;;0.80;99.90;;;;;;5039277;28;19913;-71
2023/11/25 01:00:39;;;;;;;;;;;0.80;99.90;;;;;;5045867;28;19913;-73
2023/11/25 01:03:06;;;;;;;;;;;0.80;99.90;;;;;;5039732;28;19917;-74
2023/11/25 01:05:32;;;;;;;;;;;0.80;99.90;;;;;;5031297;28;19987;-71
2023/11/25 01:07:57;;;;;;;;;;;0.80;99.90;;;;;;5029963;28;20004;-71
2023/11/25 01:10:23;;;;;;;;;;;0.80;99.90;;;;;;5011183;28;19910;-74
2023/11/25 01:12:48;;;;;;;;;;;0.90;99.90;;;;;;5032076;28;19909;-73
2023/11/25 01:15:15;;;;;;;;;;;0.90;99.90;;;;;;5031982;28;20008;-71
2023/11/25 01:17:40;;;;;;;;;;;0.80;99.90;;;;;;5031449;28;19931;-72
2023/11/25 01:20:06;;;;;;;;;;;0.80;99.90;;;;;;5035568;28;20382;-73
2023/11/25 01:22:32;;;;;;;;;;;0.70;99.90;;;;;;5032740;28;20342;-73
2023/11/25 01:24:57;;;;;;;;;;;0.80;99.90;;;;;;5030085;28;19925;-74
2023/11/25 01:27:23;;;;;;;;;;;0.80;99.90;;;;;;5026176;28;19909;-71
2023/11/25 01:29:49;;;;;;;;;;;0.70;99.90;;;;;;5013365;28;19963;-74
2023/11/25 01:32:14;;;;;;;;;;;0.70;99.90;;;;;;5026996;28;19913;-74
2023/11/25 01:34:39;;;;;;;;;;;0.80;99.90;;;;;;5039398;28;19917;-73
2023/11/25 01:37:05;;;;;;;;;;;0.80;99.90;;;;;;5041195;28;20266;-70
2023/11/25 01:39:30;;;;;;;;;;;0.70;99.90;;;;;;5015473;28;20089;-73
2023/11/25 01:41:56;;;;;;;;;;;0.80;99.90;;;;;;5028196;28;19915;-73
2023/11/25 01:44:22;;;;;;;;;;;0.80;99.90;;;;;;5032371;28;20836;-70
2023/11/25 01:46:48;;;;;;;;;;;1.00;99.90;;;;;;5036716;28;20313;-73
2023/11/25 01:49:14;;;;;;;;;;;1.10;99.90;;;;;;5037516;28;19916;-74
2023/11/25 01:51:45;;;;;;;;;;;1.00;99.90;;;;;;5031450;28;19916;-73
2023/11/25 01:54:14;;;;;;;;;;;1.00;99.90;;;;;;5038008;28;20332;-73
2023/11/25 01:56:41;;;;;;;;;;;1.00;99.90;;;;;;5032146;28;19908;-73
2023/11/25 01:59:07;;;;;;;;;;;1.00;99.90;;;;;;5038978;28;19909;-73
2023/11/25 02:01:33;;;;;;;;;;;1.00;99.90;;;;;;5016172;28;20332;-73
2023/11/25 02:03:59;;;;;;;;;;;1.10;99.90;;;;;;5029188;28;19916;-71
2023/11/25 02:06:25;;;;;;;;;;;0.80;99.90;;;;;;5033170;28;19913;-73
2023/11/25 02:08:51;;;;;;;;;;;1.00;99.90;;;;;;5030566;28;19967;-73
2023/11/25 02:11:17;;;;;;;;;;;1.00;99.90;;;;;;5020787;28;19913;-73
2023/11/25 02:13:44;;;;;;;;;;;0.90;99.90;;;;;;5036988;28;19909;-73
2023/11/25 02:16:10;;;;;;;;;;;0.90;99.90;;;;;;5035712;28;19909;-73
2023/11/25 02:18:37;;;;;;;;;;;1.00;99.90;;;;;;5033512;28;19909;-71
2023/11/25 02:21:02;;;;;;;;;;;1.00;99.90;;;;;;5042266;28;19948;-71
2023/11/25 02:23:28;;;;;;;;;;;1.00;99.90;;;;;;5044230;28;19931;-73
2023/11/25 02:25:53;;;;;;;;;;;0.90;99.90;;;;;;5032825;28;19909;-73
2023/11/25 02:28:19;;;;;;;;;;;1.00;99.90;;;;;;5029276;28;19964;-70
2023/11/25 02:30:46;;;;;;;;;;;0.90;99.90;;;;;;5022069;28;19936;-72
2023/11/25 02:33:12;;;;;;;;;;;0.80;99.90;;;;;;5038146;28;19947;-73
2023/11/25 02:35:37;;;;;;;;;;;1.00;99.90;;;;;;5035814;28;19955;-73
2023/11/25 02:38:04;;;;;;;;;;;1.00;99.90;;;;;;5031762;28;19913;-71
2023/11/25 02:40:30;;;;;;;;;;;0.90;99.90;;;;;;5031111;28;20012;-73
2023/11/25 02:42:56;;;;;;;;;;;1.00;99.90;;;;;;5044998;28;19952;-72
2023/11/25 02:45:24;;;;;;;;;;;0.80;99.90;;;;;;5025052;28;19916;-70
2023/11/25 02:47:50;;;;;;;;;;;1.00;99.90;;;;;;5031223;28;19915;-70
2023/11/25 02:50:16;;;;;;;;;;;0.90;99.90;;;;;;5037137;28;19995;-73
2023/11/25 02:52:43;;;;;;;;;;;1.00;99.90;;;;;;5032668;28;20333;-73
2023/11/25 02:55:10;;;;;;;;;;;0.90;99.90;;;;;;5041433;28;19909;-70
2023/11/25 02:57:45;;;;;;;;;;;0.80;99.90;;;;;;5034900;28;19959;-73
2023/11/25 03:00:16;;;;;;;;;;;0.90;99.90;;;;;;5027046;28;19913;-71
2023/11/25 03:02:42;;;;;;;;;;;0.80;99.90;;;;;;5038410;28;19916;-73
2023/11/25 03:05:08;;;;;;;;;;;0.80;99.90;;;;;;5035690;28;19963;-73
2023/11/25 03:07:35;;;;;;;;;;;0.80;99.90;;;;;;5034347;28;19913;-73
2023/11/25 03:10:01;;;;;;;;;;;0.70;99.90;;;;;;5042284;28;19909;-72
2023/11/25 03:12:27;;;;;;;;;;;0.80;99.90;;;;;;5025720;28;19928;-70
2023/11/25 03:14:52;;;;;;;;;;;0.80;99.90;;;;;;5030932;28;20168;-73
2023/11/25 03:17:18;;;;;;;;;;;0.80;99.90;;;;;;5036319;28;19908;-73
2023/11/25 03:19:44;;;;;;;;;;;0.70;99.90;;;;;;5041236;28;19917;-73
2023/11/25 03:22:10;;;;;;;;;;;0.80;99.90;;;;;;5046082;28;19909;-71
2023/11/25 03:24:35;;;;;;;;;;;0.80;99.90;;;;;;5039790;28;19916;-73
2023/11/25 03:27:02;;;;;;;;;;;0.80;99.90;;;;;;5039285;28;19956;-73
2023/11/25 03:29:27;;;;;;;;;;;0.80;99.90;;;;;;5032378;28;19917;-73
2023/11/25 03:31:53;;;;;;;;;;;0.80;99.90;;;;;;5031713;28;19916;-73
2023/11/25 03:34:18;;;;;;;;;;;0.80;99.90;;;;;;5034465;28;19910;-70
2023/11/25 03:36:44;;;;;;;;;;;0.90;99.90;;;;;;5039435;28;19920;-73
2023/11/25 03:39:09;;;;;;;;;;;0.80;99.90;;;;;;5037124;28;19939;-73
2023/11/25 03:41:35;;;;;;;;;;;0.70;99.90;;;;;;5029125;28;19917;-72
2023/11/25 03:44:01;;;;;;;;;;;0.70;99.90;;;;;;5048162;28;20008;-73
2023/11/25 03:46:27;;;;;;;;;;;0.80;99.90;;;;;;5039672;28;20376;-73
2023/11/25 03:48:53;;;;;;;;;;;0.80;99.90;;;;;;5051468;28;19923;-73
2023/11/25 03:51:19;;;;;;;;;;;0.60;99.90;;;;;;5035211;28;20365;-73
2023/11/25 03:53:45;;;;;;;;;;;0.40;99.90;;;;;;5045943;28;19960;-73
2023/11/25 03:56:13;;;;;;;;;;;0.60;99.90;;;;;;5047435;28;19909;-73
2023/11/25 03:58:39;;;;;;;;;;;0.60;99.90;;;;;;5042774;28;19970;-73
2023/11/25 04:01:04;;;;;;;;;;;0.60;99.90;;;;;;5038324;28;20007;-71
2023/11/25 04:03:30;;;;;;;;;;;0.60;99.90;;;;;;5036180;28;20347;-73
2023/11/25 04:05:57;;;;;;;;;;;0.60;99.90;;;;;;5034392;28;19915;-73
2023/11/25 04:08:23;;;;;;;;;;;0.40;99.90;;;;;;5021343;28;19909;-72
2023/11/25 04:10:50;;;;;;;;;;;0.40;99.90;;;;;;5037654;28;19916;-73
2023/11/25 04:13:16;;;;;;;;;;;0.10;99.90;;;;;;5031069;28;19909;-73
2023/11/25 04:15:41;;;;;;;;;;;0.00;99.90;;;;;;5038882;28;20000;-73
2023/11/25 04:18:07;;;;;;;;;;;0.30;99.90;;;;;;5036588;28;19920;-71
2023/11/25 04:20:33;;;;;;;;;;;0.20;99.90;;;;;;5012666;28;19912;-73
2023/11/25 04:23:05;;;;;;;;;;;0.00;99.90;;;;;;5040624;28;19999;-73
2023/11/25 04:25:31;;;;;;;;;;;0.00;99.90;;;;;;5035343;28;19952;-73
2023/11/25 04:27:56;;;;;;;;;;;0.00;99.90;;;;;;5033042;28;20321;-72
2023/11/25 04:30:22;;;;;;;;;;;0.20;99.90;;;;;;5027564;28;19917;-71
2023/11/25 04:32:48;;;;;;;;;;;0.10;99.90;;;;;;5037068;28;20011;-70
2023/11/25 04:35:15;;;;;;;;;;;-0.10;99.90;;;;;;5012769;28;19920;-69
2023/11/25 04:37:41;;;;;;;;;;;-0.10;99.90;;;;;;5031773;28;19913;-70
2023/11/25 04:40:07;;;;;;;;;;;-0.20;99.90;;;;;;5030181;28;20007;-70
2023/11/25 04:42:33;;;;;;;;;;;-0.30;99.90;;;;;;5033841;28;19976;-71
2023/11/25 04:44:59;;;;;;;;;;;-0.40;99.90;;;;;;5039481;28;19982;-73
2023/11/25 04:47:24;;;;;;;;;;;-0.50;99.90;;;;;;5047191;28;19909;-73
2023/11/25 04:49:50;;;;;;;;;;;-0.30;99.90;;;;;;5040236;28;20434;-72
2023/11/25 04:52:16;;;;;;;;;;;-0.40;99.90;;;;;;5029479;28;20396;-73
2023/11/25 04:54:41;;;;;;;;;;;-0.30;99.90;;;;;;5030785;28;19909;-70
2023/11/25 04:57:07;;;;;;;;;;;-0.30;99.90;;;;;;5030887;28;19916;-73
2023/11/25 04:59:34;;;;;;;;;;;-0.40;99.90;;;;;;5033867;28;20317;-73
2023/11/25 05:01:59;;;;;;;;;;;-0.50;99.90;;;;;;5039985;28;20007;-73
2023/11/25 05:04:25;;;;;;;;;;;-0.40;99.90;;;;;;5030504;28;19913;-73
2023/11/25 05:06:51;;;;;;;;;;;-0.50;99.90;;;;;;5031452;28;19920;-73
2023/11/25 05:09:20;;;;;;;;;;;-0.20;99.90;;;;;;5037482;28;19913;-72
2023/11/25 05:11:45;;;;;;;;;;;-0.20;99.90;;;;;;5037365;28;19948;-73
2023/11/25 05:14:11;;;;;;;;;;;-0.30;99.90;;;;;;5031224;28;19963;-73
2023/11/25 05:16:36;;;;;;;;;;;-0.20;99.90;;;;;;5040619;28;19962;-70
2023/11/25 05:19:03;;;;;;;;;;;-0.10;99.90;;;;;;5036725;28;19909;-73
2023/11/25 05:21:29;;;;;;;;;;;0.10;99.90;;;;;;5033816;28;20350;-73
2023/11/25 05:23:54;;;;;;;;;;;0.20;99.90;;;;;;5037946;28;19909;-73
2023/11/25 05:26:20;;;;;;;;;;;0.20;99.90;;;;;;5035373;28;19916;-73
2023/11/25 05:28:45;;;;;;;;;;;0.20;99.90;;;;;;5038536;28;19924;-73
2023/11/25 05:31:11;;;;;;;;;;;0.10;99.90;;;;;;5038079;28;19917;-73
2023/11/25 05:33:37;;;;;;;;;;;0.10;99.90;;;;;;5031334;28;19909;-73
2023/11/25 05:36:02;;;;;;;;;;;0.10;99.90;;;;;;5036700;28;20294;-73
2023/11/25 05:38:28;;;;;;;;;;;0.10;99.90;;;;;;5044515;28;19921;-70
2023/11/25 05:40:54;;;;;;;;;;;0.10;99.90;;;;;;5028397;28;19913;-73
2023/11/25 05:43:21;;;;;;;;;;;0.10;99.90;;;;;;5036810;28;19916;-73
2023/11/25 05:45:46;;;;;;;;;;;0.10;99.90;;;;;;5033727;28;19949;-70
2023/11/25 05:48:12;;;;;;;;;;;-0.20;99.90;;;;;;5034934;28;20003;-74
2023/11/25 05:50:38;;;;;;;;;;;-0.50;99.90;;;;;;5025311;28;19917;-73
2023/11/25 05:53:04;;;;;;;;;;;-0.50;99.90;;;;;;5027597;28;20563;-73
2023/11/25 05:55:30;;;;;;;;;;;-0.40;99.90;;;;;;5033690;28;19932;-73
2023/11/25 05:57:55;;;;;;;;;;;-0.40;99.90;;;;;;5031026;28;20370;-71
2023/11/25 06:00:21;;;;;;;;;;;-0.50;99.90;;;;;;5036758;28;20358;-73
2023/11/25 06:02:47;;;;;;;;;;;-0.20;99.90;;;;;;5036815;28;20370;-73
2023/11/25 06:05:12;;;;;;;;;;;-0.40;99.90;;;;;;5031356;28;20328;-73
2023/11/25 06:07:38;;;;;;;;;;;-0.60;99.90;;;;;;5031245;28;19959;-72
2023/11/25 06:10:03;;;;;;;;;;;-0.60;99.90;;;;;;5031705;28;19952;-73
2023/11/25 06:12:29;;;;;;;;;;;-0.70;99.90;;;;;;5034171;28;19951;-73
2023/11/25 06:14:55;;;;;;;;;;;-0.80;99.90;;;;;;5037076;28;19983;-73
2023/11/25 06:17:23;;;;;;;;;;;-0.80;99.90;;;;;;5042344;28;19948;-73
2023/11/25 06:19:48;;;;;;;;;;;-1.00;99.90;;;;;;5034475;28;19913;-72
2023/11/25 06:22:14;;;;;;;;;;;-1.00;99.90;;;;;;5044386;28;19944;-73
2023/11/25 06:24:40;;;;;;;;;;;-0.90;99.90;;;;;;5029503;28;19932;-73
2023/11/25 06:27:06;;;;;;;;;;;-0.90;99.90;;;;;;5027919;28;19920;-73
2023/11/25 06:29:31;;;;;;;;;;;-0.80;99.90;;;;;;5029576;28;19920;-73
2023/11/25 06:31:57;;;;;;;;;;;-0.70;99.90;;;;;;5030531;28;19909;-73
2023/11/25 06:34:22;;;;;;;;;;;-0.60;99.90;;;;;;5032748;28;19916;-73
2023/11/25 06:36:48;;;;;;;;;;;-0.50;99.90;;;;;;5038662;28;20376;-70
2023/11/25 06:39:14;;;;;;;;;;;-0.50;99.90;;;;;;5039461;28;19913;-73
2023/11/25 06:41:43;;;;;;;;;;;-0.50;99.90;;;;;;5014502;28;19919;-71
2023/11/25 06:44:09;;;;;;;;;;;-0.50;99.90;;;;;;5042001;28;20037;-73
2023/11/25 06:46:34;;;;;;;;;;;-0.50;99.90;;;;;;5017944;28;19983;-72
2023/11/25 06:49:00;;;;;;;;;;;-0.40;99.90;;;;;;5029218;28;20394;-73
2023/11/25 06:51:25;;;;;;;;;;;-0.40;99.90;;;;;;5028166;28;19913;-73
2023/11/25 06:53:50;;;;;;;;;;;-0.40;99.90;;;;;;5045179;28;20039;-70
2023/11/25 06:56:22;;;;;;;;;;;-0.30;99.90;;;;;;5036016;28;20313;-73
2023/11/25 06:58:47;;;;;;;;;;;-0.30;99.90;;;;;;5032731;28;19909;-73
2023/11/25 07:01:16;;;;;;;;;;;-0.30;99.90;;;;;;5040872;28;19913;-73
2023/11/25 07:03:42;;;;;;;;;;;-0.20;99.90;;;;;;5043214;28;20460;-73
2023/11/25 07:06:07;;;;;;;;;;;-0.20;99.90;;;;;;5013159;28;19992;-74
2023/11/25 07:08:33;;;;;;;;;;;-0.30;99.90;;;;;;5034480;28;20485;-73
2023/11/25 07:11:01;;;;;;;;;;;-0.20;99.90;;;;;;5033340;28;19916;-73
2023/11/25 07:13:27;;;;;;;;;;;-0.20;99.90;;;;;;5039494;28;19909;-73
2023/11/25 07:15:53;;;;;;;;;;;-0.10;99.90;;;;;;5029230;28;19945;-73
2023/11/25 07:18:19;;;;;;;;;;;-0.10;99.90;;;;;;5032901;28;19973;-73
2023/11/25 07:20:45;;;;;;;;;;;-0.10;99.90;;;;;;5040841;28;19921;-71
2023/11/25 07:23:10;;;;;;;;;;;-0.10;99.90;;;;;;5027255;28;19913;-73
2023/11/25 07:25:37;;;;;;;;;;;0.00;99.90;;;;;;5035444;28;20187;-73
2023/11/25 07:28:03;;;;;;;;;;;0.10;99.90;;;;;;5037929;28;19915;-71
2023/11/25 07:30:28;;;;;;;;;;;0.10;99.90;;;;;;5035750;28;19921;-73
2023/11/25 07:32:54;;;;;;;;;;;0.20;99.90;;;;;;5032505;28;19909;-73
2023/11/25 07:35:19;;;;;;;;;;;0.20;99.90;;;;;;5043586;28;20393;-73
2023/11/25 07:37:45;;;;;;;;;;;0.30;99.90;;;;;;5029583;28;19920;-73
2023/11/25 07:40:14;;;;;;;;;;;0.10;99.90;;;;;;5027091;28;19926;-73
2023/11/25 07:42:43;;;;;;;;;;;-0.40;99.90;;;;;;5037425;28;19910;-73
2023/11/25 07:45:10;;;;;;;;;;;0.40;99.90;;;;;;5029345;28;19967;-73
2023/11/25 07:47:39;;;;;;;;;;;0.40;99.90;;;;;;5042981;28;20051;-74
2023/11/25 07:50:05;;;;;;;;;;;0.40;99.90;;;;;;5038108;28;20385;-73
2023/11/25 07:52:30;;;;;;;;;;;0.50;99.90;;;;;;5037114;28;20011;-70
2023/11/25 07:54:56;;;;;;;;;;;0.50;99.90;;;;;;5041554;28;20361;-74
2023/11/25 07:57:21;;;;;;;;;;;0.60;99.90;;;;;;5041973;28;19952;-73
2023/11/25 07:59:47;;;;;;;;;;;0.60;99.90;;;;;;5043060;28;19916;-70
2023/11/25 08:02:13;;;;;;;;;;;0.70;99.90;;;;;;5037782;28;19916;-73
2023/11/25 08:04:38;;;;;;;;;;;0.70;99.90;;;;;;5035284;28;19968;-73
2023/11/25 08:07:05;;;;;;;;;;;0.70;99.90;;;;;;5029264;28;19964;-73
2023/11/25 08:09:32;;;;;;;;;;;0.80;99.90;;;;;;5043719;28;19909;-74
2023/11/25 08:11:58;;;;;;;;;;;0.70;99.90;;;;;;5037558;28;19909;-73
2023/11/25 08:14:23;;;;;;;;;;;0.70;99.90;;;;;;5041283;28;19915;-71
2023/11/25 08:16:49;;;;;;;;;;;0.80;99.90;;;;;;5031119;28;19909;-73
2023/11/25 08:19:16;;;;;;;;;;;0.90;99.90;;;;;;5031127;28;19916;-73
2023/11/25 08:21:41;;;;;;;;;;;1.00;99.90;;;;;;5013536;28;19913;-74
2023/11/25 08:24:07;;;;;;;;;;;1.00;99.90;;;;;;5039459;28;19913;-73
2023/11/25 08:26:33;;;;;;;;;;;1.00;99.90;;;;;;5038973;28;20000;-71
2023/11/25 08:28:59;;;;;;;;;;;1.10;99.90;;;;;;5038820;28;20296;-71
2023/11/25 08:31:25;;;;;;;;;;;1.30;99.90;;;;;;5039159;28;20435;-73
2023/11/25 08:33:50;;;;;;;;;;;1.80;99.90;;;;;;5034543;28;19913;-74
2023/11/25 08:36:18;;;;;;;;;;;3.30;99.90;;;;;;5030658;28;19916;-74
2023/11/25 08:38:43;;;;;;;;;;;4.70;99.90;;;;;;5038664;28;19909;-72
2023/11/25 08:41:09;;;;;;;;;;;6.00;99.90;;;;;;5027149;28;19923;-74
2023/11/25 08:43:37;;;;;;;;;;;5.70;99.90;;;;;;5031769;28;19931;-74
2023/11/25 08:46:04;;;;;;;;;;;;;;;;;;5022732;28;19945;-74
2023/11/25 08:48:30;;;;;;;;;;;;;;;;;;5036640;28;19944;-73
2023/11/25 08:50:56;;;;;;;;;;;;;;;;;;5040170;28;20771;-71
2023/11/25 08:53:23;;;;;;;;;;;;;;;;;;5033836;28;19909;-74
2023/11/25 08:55:49;;;;;;;;;;;;;;;;;;5036576;28;19909;-74
2023/11/25 08:58:15;;;;;;;;;;;;;;;;;;5033469;28;20416;-73
2023/11/25 09:00:41;;;;;;;;;;;;;;;;;;5030643;28;19920;-74
2023/11/25 09:03:08;;;;;;;;;;;;;;;;;;5033252;28;20423;-74
2023/11/25 09:05:36;;;;;;;;;;;;;;;;;;5033944;28;19909;-74
2023/11/25 09:08:05;;;;;;;;;;;;;;;;;;5033031;28;20321;-71
2023/11/25 09:10:31;;;;;;;;;;;;;;;;;;5030499;28;19909;-75
2023/11/25 09:12:57;;;;;;;;;;;;;;;;;;5021846;28;19996;-74
2023/11/25 09:15:22;;;;;;;;;;;;;;;;;;5038137;28;20018;-74
2023/11/25 09:17:48;;;;;;;;;;;;;;;;;;5029906;28;19924;-74
2023/11/25 09:20:16;;;;;;;;;;;;;;;;;;5032711;28;19913;-74
2023/11/25 09:22:42;;;;;;;;;;;;;;;;;;5035927;28;20389;-72
2023/11/25 09:25:11;;;;;;;;;;;;;;;;;;5033170;28;20254;-74
2023/11/25 09:27:38;;;;;;;;;;;;;;;;;;5019311;28;19909;-74
2023/11/25 09:30:05;;;;;;;;;;;;;;;;;;5030640;28;20373;-71
2023/11/25 09:32:31;;;;;;;;;;;;;;;;;;5036401;28;20281;-74
2023/11/25 09:34:57;;;;;;;;;;;;;;;;;;5038234;28;19909;-72
2023/11/25 09:37:23;;;;;;;;;;;;;;;;;;5035839;28;19909;-71
2023/11/25 09:39:49;;;;;;;;;;;;;;;;;;5031332;28;20127;-74
2023/11/25 09:42:15;;;;;;;;;;;;;;;;;;5041247;28;19973;-74
2023/11/25 09:44:40;;;;;;;;;;;;;;;;;;5029693;28;19909;-74
2023/11/25 09:47:06;;;;;;;;;;;;;;;;;;5028645;28;19916;-74
2023/11/25 09:49:32;;;;;;;;;;;;;;;;;;5035747;28;19909;-75
2023/11/25 09:51:58;;;;;;;;;;;;;;;;;;5033134;28;19999;-74
2023/11/25 09:54:24;;;;;;;;;;;;;;;;;;5031048;28;19909;-71
2023/11/25 09:56:50;;;;;;;;;;;2.90;99.90;;;;;;5032229;28;20313;-70
2023/11/25 09:59:16;;;;;;;;;;;2.70;99.90;;;;;;5036590;28;20033;-75
2023/11/25 10:01:42;;;;;;;;;;;3.30;99.90;;;;;;5032347;28;20000;-74
2023/11/25 10:04:08;;;;;;;;;;;3.40;99.90;;;;;;5025373;28;19963;-73
2023/11/25 10:06:33;;;;;;;;;;;4.10;99.90;;;;;;5032650;28;19963;-74
2023/11/25 10:08:59;;;;;;;;;;;4.10;99.90;;;;;;5036221;28;20293;-72
2023/11/25 10:11:24;;;;;;;;;;;4.60;99.90;;;;;;5028862;28;19909;-75
2023/11/25 10:13:50;;;;;;;;;;;4.90;99.90;;;;;;5028925;28;20008;-74
2023/11/25 10:16:29;;;;;;;;;;;4.30;99.90;;;;;;5037399;28;19913;-74
2023/11/25 10:18:56;;;;;;;;;;;3.50;99.90;;;;;;5041151;28;19944;-74
2023/11/25 10:21:22;;;;;;;;;;;3.60;99.90;;;;;;5027211;28;19917;-74
2023/11/25 10:23:47;;;;;;;;;;;4.20;99.90;;;;;;5028615;28;20012;-75
2023/11/25 10:26:17;;;;;;;;;;;4.00;99.90;;;;;;5028499;28;19909;-75
2023/11/25 10:28:44;;;;;;;;;;;4.20;99.90;;;;;;5029095;28;19909;-75
2023/11/25 10:31:09;;;;;;;;;;;4.40;99.90;;;;;;5030478;28;19953;-75
2023/11/25 10:33:37;;;;;;;;;;;4.70;99.90;;;;;;5032280;28;19913;-75
2023/11/25 10:36:03;;;;;;;;;;;5.50;99.90;;;;;;5029481;28;19994;-74
2023/11/25 10:38:29;;;;;;;;;;;6.20;99.90;;;;;;5040661;28;19952;-74
2023/11/25 10:41:01;;;;;;;;;;;4.60;99.90;;;;;;5029149;28;20243;-73
2023/11/25 10:43:27;;;;;;;;;;;4.60;99.90;;;;;;5033030;28;19921;-74
2023/11/25 10:46:11;;;;;;;;;;;4.10;99.90;;;;;;5032365;28;19909;-73
2023/11/25 10:48:40;;;;;;;;;;;3.80;99.90;;;;;;5028854;28;19909;-75
2023/11/25 10:51:06;;;;;;;;;;;3.50;99.90;;;;;;5026093;28;20401;-74
2023/11/25 10:53:32;;;;;;;;;;;3.10;99.90;;;;;;5032970;28;19948;-72
2023/11/25 10:55:59;;;;;;;;;;;3.00;99.90;;;;;;5011410;28;19909;-74
2023/11/25 10:58:29;;;;;;;;;;;3.40;99.90;;;;;;5043397;28;19916;-74
2023/11/25 11:00:55;;;;;;;;;;;4.20;99.90;;;;;;5026963;28;19914;-75
2023/11/25 11:03:22;;;;;;;;;;;4.50;99.90;;;;;;5011652;28;19914;-75
2023/11/25 11:05:50;;;;;;;;;;;4.30;99.90;;;;;;5028266;28;19910;-75
2023/11/25 11:08:17;;;;;;;;;;;4.10;99.90;;;;;;5027097;28;19913;-76
2023/11/25 11:11:00;;;;;;;;;;;4.00;99.90;;;;;;5036644;28;19909;-75
2023/11/25 11:13:29;;;;;;;;;;;3.60;99.90;;;;;;5011840;28;20397;-73
2023/11/25 11:15:57;;;;;;;;;;;3.50;99.90;;;;;;5030774;28;19909;-74
2023/11/25 11:18:23;;;;;;;;;;;3.50;99.90;;;;;;5040731;28;19909;-74
2023/11/25 11:20:51;;;;;;;;;;;3.40;99.90;;;;;;5032619;28;20316;-74
2023/11/25 11:23:19;;;;;;;;;;;3.40;99.90;;;;;;5036603;28;20105;-74
2023/11/25 11:26:07;;;;;;;;;;;3.50;99.90;;;;;;5032316;28;19916;-73
2023/11/25 11:28:39;;;;;;;;;;;3.60;99.90;;;;;;5039188;28;19917;-74
2023/11/25 11:31:24;;;;;;;;;;;3.60;99.90;;;;;;5038567;28;19962;-73
2023/11/25 11:33:50;;;;;;;;;;;3.50;99.90;;;;;;5039818;28;19909;-74
2023/11/25 11:36:20;;;;;;;;;;;3.80;99.90;;;;;;5022439;28;20366;-70
2023/11/25 11:38:46;;;;;;;;;;;3.30;99.90;;;;;;5026443;28;19913;-74
2023/11/25 11:41:13;;;;;;;;;;;3.50;99.90;;;;;;5026787;28;20000;-74
2023/11/25 11:43:39;;;;;;;;;;;3.50;99.90;;;;;;5031356;28;19913;-74
2023/11/25 11:46:05;;;;;;;;;;;3.60;99.90;;;;;;5040103;28;20274;-71
2023/11/25 11:48:30;;;;;;;;;;;3.60;99.90;;;;;;5040855;28;20358;-73
2023/11/25 11:50:57;;;;;;;;;;;3.60;99.90;;;;;;5040055;28;19924;-74
2023/11/25 11:53:25;;;;;;;;;;;3.40;99.90;;;;;;5041946;28;19960;-72
2023/11/25 11:55:57;;;;;;;;;;;3.20;99.90;;;;;;5039597;28;20320;-73
2023/11/25 11:58:23;;;;;;;;;;;3.10;99.90;;;;;;5039781;28;19909;-74
2023/11/25 12:01:01;;;;;;;;;;;3.10;99.90;;;;;;5034565;28;19921;-74
2023/11/25 12:03:28;;;;;;;;;;;2.90;99.90;;;;;;5034025;28;19917;-74
2023/11/25 12:05:53;;;;;;;;;;;2.80;99.90;;;;;;5031695;28;19917;-74
2023/11/25 12:08:20;;;;;;;;;;;2.70;99.90;;;;;;5026274;28;20055;-71
2023/11/25 12:10:45;;;;;;;;;;;2.70;99.90;;;;;;5024675;28;19982;-74
2023/11/25 12:13:12;;;;;;;;;;;2.70;99.90;;;;;;5031004;28;19995;-74
2023/11/25 12:15:38;;;;;;;;;;;2.30;99.90;;;;;;5022688;28;20043;-73
2023/11/25 12:18:05;;;;;;;;;;;2.20;99.90;;;;;;5029527;28;19944;-74
2023/11/25 12:20:31;;;;;;;;;;;2.20;99.90;;;;;;5032163;28;19912;-73
2023/11/25 12:22:56;;;;;;;;;;;2.20;99.90;;;;;;5035535;28;19921;-73
2023/11/25 12:25:26;;;;;;;;;;;2.40;99.90;;;;;;5033811;28;19909;-71
2023/11/25 12:28:05;;;;;;;;;;;2.30;99.90;;;;;;5038797;28;19913;-72
2023/11/25 12:30:31;;;;;;;;;;;2.20;99.90;;;;;;5038373;28;19917;-73
2023/11/25 12:32:56;;;;;;;;;;;2.30;99.90;;;;;;5030693;28;19909;-73
2023/11/25 12:35:23;;;;;;;;;;;2.20;99.90;;;;;;5032591;28;19952;-71
2023/11/25 12:37:50;;;;;;;;;;;2.00;99.90;;;;;;5023332;28;19916;-73
2023/11/25 12:40:19;;;;;;;;;;;1.90;99.90;;;;;;5026374;28;19924;-71
2023/11/25 12:42:45;;;;;;;;;;;2.20;99.90;;;;;;5027992;28;19927;-74
2023/11/25 12:45:10;;;;;;;;;;;2.30;99.90;;;;;;5031485;28;19913;-73
2023/11/25 12:47:51;;;;;;;;;;;2.30;99.90;;;;;;5030076;28;20385;-73
2023/11/25 12:50:18;;;;;;;;;;;2.50;99.90;;;;;;5034537;28;20413;-70
2023/11/25 12:52:45;;;;;;;;;;;2.50;99.90;;;;;;5031564;28;19918;-72
2023/11/25 12:55:12;;;;;;;;;;;2.40;99.90;;;;;;5031856;28;19915;-71
2023/11/25 12:57:37;;;;;;;;;;;2.50;99.90;;;;;;5024413;28;19945;-73
2023/11/25 13:00:10;;;;;;;;;;;2.50;99.90;;;;;;5040611;28;20366;-73
2023/11/25 13:02:43;;;;;;;;;;;2.60;99.90;;;;;;5031513;28;20408;-73
2023/11/25 13:05:08;;;;;;;;;;;2.70;99.90;;;;;;5035346;28;19970;-73
2023/11/25 13:07:34;;;;;;;;;;;2.70;99.90;;;;;;5029220;28;20366;-73
2023/11/25 13:10:00;;;;;;;;;;;2.60;99.90;;;;;;5030604;28;19909;-73
2023/11/25 13:12:27;;;;;;;;;;;2.70;99.90;;;;;;5029238;28;20007;-72
2023/11/25 13:14:55;;;;;;;;;;;2.70;99.90;;;;;;5036629;28;19921;-73
2023/11/25 13:17:21;;;;;;;;;;;2.70;99.90;;;;;;5032802;28;19913;-73
2023/11/25 13:19:46;;;;;;;;;;;2.70;99.90;;;;;;5029759;28;20063;-71
2023/11/25 13:22:12;;;;;;;;;;;2.60;99.90;;;;;;5035796;28;19936;-73
2023/11/25 13:24:37;;;;;;;;;;;2.60;99.90;;;;;;5031156;28;19959;-73
2023/11/25 13:27:05;;;;;;;;;;;2.50;99.90;;;;;;5033631;28;20301;-70
2023/11/25 13:29:31;;;;;;;;;;;2.40;99.90;;;;;;5032595;28;19913;-72
2023/11/25 13:31:56;;;;;;;;;;;2.30;99.90;;;;;;5030869;28;19915;-73
2023/11/25 13:34:22;;;;;;;;;;;2.20;99.90;;;;;;5029855;28;20374;-73
2023/11/25 13:36:48;;;;;;;;;;;2.10;99.90;;;;;;5028811;28;19923;-73
2023/11/25 13:39:19;;;;;;;;;;;2.10;99.90;;;;;;5031496;28;19910;-73
2023/11/25 13:41:46;;;;;;;;;;;2.10;99.90;;;;;;5034289;28;20394;-73
2023/11/25 13:44:12;;;;;;;;;;;2.10;99.90;;;;;;5034882;28;19909;-72
2023/11/25 13:46:38;;;;;;;;;;;1.90;99.90;;;;;;5024057;28;19909;-71
2023/11/25 13:49:03;;;;;;;;;;;2.10;99.90;;;;;;5035612;28;20020;-73
2023/11/25 13:51:30;;;;;;;;;;;2.20;99.90;;;;;;5032797;28;20004;-73
2023/11/25 13:53:57;;;;;;;;;;;2.20;99.90;;;;;;5035626;28;19909;-73
2023/11/25 13:56:24;;;;;;;;;;;2.10;99.90;;;;;;5033708;28;19913;-73
2023/11/25 13:58:50;;;;;;;;;;;2.10;99.90;;;;;;5004333;28;19928;-73
2023/11/25 14:01:16;;;;;;;;;;;2.10;99.90;;;;;;5037022;28;19948;-73
2023/11/25 14:03:42;;;;;;;;;;;2.00;99.90;;;;;;5014551;28;19913;-73
2023/11/25 14:06:08;;;;;;;;;;;;;;;;;;5029131;28;20325;-72
2023/11/25 14:08:34;;;;;;;;;;;;;;;;;;5019862;28;19909;-70
2023/11/25 14:11:00;;;;;;;;;;;1.90;99.90;;;;;;5034867;28;19932;-70
2023/11/25 14:13:27;;;;;;;;;;;1.90;99.90;;;;;;5025650;28;21570;-73
2023/11/25 14:15:52;;;;;;;;;;;1.90;99.90;;;;;;5014517;28;20006;-75
2023/11/25 14:18:18;;;;;;;;;;;1.70;99.90;;;;;;5030047;28;19974;-71
2023/11/25 14:20:43;;;;;;;;;;;1.80;99.90;;;;;;5031254;28;19912;-73
2023/11/25 14:23:10;;;;;;;;;;;1.80;99.90;;;;;;5014975;28;19909;-73
2023/11/25 14:25:36;;;;;;;;;;;;;;;;;;5033919;28;19920;-73
2023/11/25 14:28:02;;;;;;;;;;;;;;;;;;5033545;28;19909;-73
2023/11/25 14:30:30;;;;;;;;;;;;;;;;;;5027912;28;19917;-73
2023/11/25 14:32:56;;;;;;;;;;;;;;;;;;5030397;28;20004;-72
2023/11/25 14:35:22;;;;;;;;;;;1.70;99.90;;;;;;5043890;28;19974;-72
2023/11/25 14:37:48;;;;;;;;;;;;;;;;;;5035376;28;19920;-72